createdAt,value
2017-10-19T00:00:37.382Z,26.40
2017-10-19T00:03:04.795Z,28.03
2017-10-19T00:05:32.216Z,27.67
2017-10-19T00:07:59.660Z,26.03
2017-10-19T00:10:27.096Z,26.43
2017-10-19T00:12:54.529Z,26.37
2017-10-19T00:15:21.961Z,28.23
2017-10-19T00:17:49.405Z,27.67
2017-10-19T00:20:16.842Z,25.13
2017-10-19T00:22:44.286Z,27.80
2017-10-19T00:25:11.710Z,26.03
2017-10-19T00:27:39.124Z,28.17
2017-10-19T00:30:06.566Z,27.10
2017-10-19T00:32:33.989Z,27.00
2017-10-19T00:35:01.429Z,28.17
2017-10-19T00:37:28.867Z,27.33
2017-10-19T00:39:56.285Z,27.23
2017-10-19T00:42:23.720Z,27.20
2017-10-19T00:44:51.160Z,25.63
2017-10-19T00:47:18.582Z,28.30
2017-10-19T00:49:46.000Z,28.03
2017-10-19T00:52:13.441Z,28.97
2017-10-19T00:54:40.860Z,27.90
2017-10-19T00:57:08.288Z,26.87
2017-10-19T00:59:35.728Z,27.10
2017-10-19T01:02:03.145Z,27.67
2017-10-19T01:04:30.573Z,28.60
2017-10-19T01:06:58.008Z,29.60
2017-10-19T01:09:25.432Z,28.03
2017-10-19T01:11:52.848Z,27.77
2017-10-19T01:14:20.285Z,28.03
2017-10-19T01:16:47.708Z,27.20
2017-10-19T01:19:15.129Z,30.70
2017-10-19T01:21:42.568Z,28.23
2017-10-19T01:24:09.992Z,28.40
2017-10-19T01:26:37.407Z,28.50
2017-10-19T01:29:04.849Z,28.27
2017-10-19T01:31:32.277Z,29.20
2017-10-19T01:33:59.696Z,28.07
2017-10-19T01:36:27.145Z,27.83
2017-10-19T01:38:54.570Z,27.70
2017-10-19T01:41:22.005Z,28.13
2017-10-19T01:43:49.480Z,30.03
2017-10-19T01:46:16.900Z,28.40
2017-10-19T01:48:44.329Z,26.20
2017-10-19T01:51:11.768Z,27.03
2017-10-19T01:53:39.181Z,29.20
2017-10-19T01:56:06.601Z,28.10
2017-10-19T01:58:34.040Z,29.73
2017-10-19T02:01:01.461Z,31.57
2017-10-19T02:03:28.890Z,29.50
2017-10-19T02:05:56.329Z,28.70
2017-10-19T02:08:23.754Z,29.70
2017-10-19T02:10:51.173Z,26.33
2017-10-19T02:13:18.609Z,28.07
2017-10-19T02:15:46.037Z,29.10
2017-10-19T02:18:13.456Z,29.97
2017-10-19T02:20:40.922Z,29.47
2017-10-19T02:23:08.365Z,29.43
2017-10-19T02:25:35.785Z,28.47
2017-10-19T02:28:03.243Z,30.37
2017-10-19T02:30:30.656Z,30.67
2017-10-19T02:32:58.084Z,28.83
2017-10-19T02:35:25.529Z,30.80
2017-10-19T02:37:52.948Z,31.20
2017-10-19T02:40:20.378Z,31.40
2017-10-19T02:42:47.820Z,31.40
2017-10-19T02:45:15.235Z,28.87
2017-10-19T02:47:42.657Z,28.63
2017-10-19T02:50:10.097Z,30.00
2017-10-19T02:52:37.516Z,29.47
2017-10-19T02:55:04.945Z,29.30
2017-10-19T02:57:32.377Z,28.47
2017-10-19T02:59:59.800Z,30.10
2017-10-19T03:02:27.221Z,29.80
2017-10-19T03:04:54.661Z,28.23
2017-10-19T03:07:22.076Z,28.77
2017-10-19T03:09:49.510Z,28.53
2017-10-19T03:12:16.940Z,27.80
2017-10-19T03:14:44.364Z,27.50
2017-10-19T03:17:11.783Z,27.60
2017-10-19T03:19:39.224Z,28.37
2017-10-19T03:22:06.640Z,28.10
2017-10-19T03:24:34.065Z,27.90
2017-10-19T03:27:01.507Z,28.87
2017-10-19T03:29:28.920Z,27.80
2017-10-19T03:31:56.341Z,27.50
2017-10-19T03:34:23.781Z,27.30
2017-10-19T03:36:51.201Z,27.90
2017-10-19T03:39:18.620Z,28.50
2017-10-19T03:41:46.059Z,29.10
2017-10-19T03:44:13.480Z,28.53
2017-10-19T03:46:40.908Z,27.40
2017-10-19T03:49:08.350Z,27.87
2017-10-19T03:51:35.776Z,27.33
2017-10-19T03:54:03.196Z,29.90
2017-10-19T03:56:30.641Z,28.53
2017-10-19T03:58:58.052Z,30.30
2017-10-19T04:01:25.476Z,29.67
2017-10-19T04:03:52.916Z,28.20
2017-10-19T04:06:20.335Z,29.43
2017-10-19T04:08:47.752Z,30.47
2017-10-19T04:11:15.193Z,30.40
2017-10-19T04:13:42.617Z,27.93
2017-10-19T04:16:10.037Z,29.03
2017-10-19T04:18:37.473Z,30.20
2017-10-19T04:21:04.895Z,29.47
2017-10-19T04:23:32.324Z,29.27
2017-10-19T04:25:59.762Z,29.27
2017-10-19T04:28:27.184Z,29.27
2017-10-19T04:30:54.595Z,29.83
2017-10-19T04:33:22.029Z,30.10
2017-10-19T04:35:49.440Z,28.17
2017-10-19T04:38:16.861Z,30.57
2017-10-19T04:40:44.292Z,29.20
2017-10-19T04:43:11.713Z,27.60
2017-10-19T04:45:39.128Z,28.83
2017-10-19T04:48:06.564Z,28.90
2017-10-19T04:50:33.989Z,28.30
2017-10-19T04:53:01.402Z,27.60
2017-10-19T04:55:28.836Z,28.27
2017-10-19T04:57:56.405Z,30.90
2017-10-19T05:00:23.821Z,29.03
2017-10-19T05:02:51.263Z,27.90
2017-10-19T05:05:18.681Z,27.93
2017-10-19T05:07:46.100Z,30.13
2017-10-19T05:10:13.531Z,28.13
2017-10-19T05:12:40.948Z,30.43
2017-10-19T05:15:08.373Z,31.27
2017-10-19T05:17:35.805Z,30.43
2017-10-19T05:20:03.226Z,29.60
2017-10-19T05:22:30.659Z,29.43
2017-10-19T05:24:58.083Z,30.60
2017-10-19T05:27:25.505Z,28.60
2017-10-19T05:29:52.944Z,28.23
2017-10-19T05:32:20.368Z,30.50
2017-10-19T05:34:47.783Z,29.80
2017-10-19T05:37:15.216Z,28.90
2017-10-19T05:39:42.636Z,27.60
2017-10-19T05:42:10.048Z,30.03
2017-10-19T05:44:37.489Z,29.23
2017-10-19T05:47:04.904Z,29.10
2017-10-19T05:49:32.316Z,29.23
2017-10-19T05:51:59.757Z,27.80
2017-10-19T05:54:27.185Z,27.23
2017-10-19T05:56:54.604Z,27.80
2017-10-19T05:59:22.043Z,27.13
2017-10-19T06:01:49.468Z,28.70
2017-10-19T06:04:16.884Z,31.33
2017-10-19T06:06:44.324Z,27.93
2017-10-19T06:09:11.741Z,27.23
2017-10-19T06:11:39.164Z,27.70
2017-10-19T06:14:06.605Z,27.07
2017-10-19T06:16:34.030Z,27.30
2017-10-19T06:19:01.462Z,28.17
2017-10-19T06:21:28.897Z,26.30
2017-10-19T06:23:56.324Z,26.67
2017-10-19T06:26:23.771Z,28.07
2017-10-19T06:28:51.189Z,27.80
2017-10-19T06:31:18.612Z,28.73
2017-10-19T06:33:46.057Z,29.20
2017-10-19T06:36:13.484Z,25.57
2017-10-19T06:38:40.908Z,29.83
2017-10-19T06:41:08.362Z,28.93
2017-10-19T06:43:35.776Z,28.53
2017-10-19T06:46:03.196Z,30.77
2017-10-19T06:48:30.633Z,29.60
2017-10-19T06:50:58.052Z,26.90
2017-10-19T06:53:25.485Z,25.93
2017-10-19T06:55:52.926Z,27.10
2017-10-19T06:58:20.345Z,26.60
2017-10-19T07:00:47.764Z,27.43
2017-10-19T07:03:15.210Z,27.37
2017-10-19T07:05:42.648Z,29.60
2017-10-19T07:08:10.068Z,27.33
2017-10-19T07:10:37.500Z,28.13
2017-10-19T07:13:04.920Z,27.63
2017-10-19T07:15:32.340Z,27.10
2017-10-19T07:17:59.796Z,28.00
2017-10-19T07:20:27.221Z,29.43
2017-10-19T07:22:54.636Z,26.77
2017-10-19T07:25:22.077Z,29.17
2017-10-19T07:27:49.496Z,29.57
2017-10-19T07:30:16.917Z,30.03
2017-10-19T07:32:44.361Z,29.20
2017-10-19T07:35:11.789Z,28.50
2017-10-19T07:37:39.204Z,28.13
2017-10-19T07:40:06.645Z,28.20
2017-10-19T07:42:34.062Z,26.90
2017-10-19T07:45:01.489Z,26.77
2017-10-19T07:47:28.921Z,25.97
2017-10-19T07:49:56.424Z,26.00
2017-10-19T07:52:23.849Z,27.87
2017-10-19T07:54:51.292Z,26.60
2017-10-19T07:57:18.717Z,27.43
2017-10-19T07:59:46.141Z,27.63
2017-10-19T08:02:13.585Z,27.20
2017-10-19T08:04:40.996Z,28.47
2017-10-19T08:07:08.416Z,29.53
2017-10-19T08:09:35.869Z,29.60
2017-10-19T08:12:03.293Z,29.33
2017-10-19T08:14:30.710Z,30.20
2017-10-19T08:16:58.148Z,29.30
2017-10-19T08:19:25.573Z,28.97
2017-10-19T08:21:52.992Z,27.47
2017-10-19T08:24:20.428Z,29.53
2017-10-19T08:26:47.856Z,29.10
2017-10-19T08:29:15.275Z,27.63
2017-10-19T08:31:42.717Z,28.23
2017-10-19T08:34:10.136Z,29.60
2017-10-19T08:36:37.561Z,28.47
2017-10-19T08:39:04.997Z,29.60
2017-10-19T08:41:32.409Z,28.23
2017-10-19T08:43:59.833Z,29.20
2017-10-19T08:46:27.273Z,28.00
2017-10-19T08:48:54.696Z,30.13
2017-10-19T08:51:22.115Z,27.90
2017-10-19T08:53:49.560Z,30.07
2017-10-19T08:56:16.980Z,29.57
2017-10-19T08:58:44.400Z,28.47
2017-10-19T09:01:11.837Z,30.47
2017-10-19T09:03:39.256Z,30.50
2017-10-19T09:06:06.677Z,30.10
2017-10-19T09:08:34.120Z,29.10
2017-10-19T09:11:01.540Z,30.27
2017-10-19T09:13:28.960Z,28.03
2017-10-19T09:15:56.396Z,29.50
2017-10-19T09:18:23.821Z,31.20
2017-10-19T09:20:51.232Z,32.03
2017-10-19T09:23:18.673Z,31.20
2017-10-19T09:25:46.084Z,30.43
2017-10-19T09:28:13.512Z,33.10
2017-10-19T09:30:40.955Z,31.13
2017-10-19T09:33:08.370Z,32.47
2017-10-19T09:35:35.783Z,33.73
2017-10-19T09:38:03.239Z,31.53
2017-10-19T09:40:30.666Z,33.40
2017-10-19T09:42:58.083Z,31.53
2017-10-19T09:45:25.521Z,33.00
2017-10-19T09:47:52.941Z,31.30
2017-10-19T09:50:20.371Z,32.33
2017-10-19T09:52:47.809Z,30.23
2017-10-19T09:55:15.233Z,32.90
2017-10-19T09:57:42.656Z,33.43
2017-10-19T10:00:10.096Z,31.33
2017-10-19T10:02:37.516Z,31.77
2017-10-19T10:05:04.982Z,30.10
2017-10-19T10:07:32.479Z,29.90
2017-10-19T10:09:59.896Z,32.13
2017-10-19T10:12:27.320Z,29.43
2017-10-19T10:14:54.753Z,31.37
2017-10-19T10:17:22.187Z,30.00
2017-10-19T10:19:49.612Z,30.80
2017-10-19T10:22:17.044Z,31.50
2017-10-19T10:24:44.465Z,30.70
2017-10-19T10:27:11.904Z,30.83
2017-10-19T10:29:39.481Z,28.80
2017-10-19T10:32:06.917Z,28.50
2017-10-19T10:34:34.352Z,29.50
2017-10-19T10:37:01.773Z,30.40
2017-10-19T10:39:29.212Z,29.70
2017-10-19T10:41:56.644Z,28.00
2017-10-19T10:44:24.078Z,30.10
2017-10-19T10:46:51.557Z,33.80
2017-10-19T10:49:18.988Z,30.73
2017-10-19T10:51:46.400Z,33.07
2017-10-19T10:54:13.842Z,32.20
2017-10-19T10:56:41.263Z,29.57
2017-10-19T10:59:08.689Z,34.33
2017-10-19T11:01:36.125Z,33.07
2017-10-19T11:04:03.546Z,30.57
2017-10-19T11:06:30.966Z,30.17
2017-10-19T11:08:58.404Z,27.10
2017-10-19T11:11:25.820Z,27.40
2017-10-19T11:13:53.244Z,26.90
2017-10-19T11:16:20.685Z,26.47
2017-10-19T11:18:48.109Z,24.87
2017-10-19T11:21:15.530Z,28.33
2017-10-19T11:23:42.968Z,26.80
2017-10-19T11:26:10.393Z,25.50
2017-10-19T11:28:37.812Z,27.93
2017-10-19T11:31:05.252Z,28.60
2017-10-19T11:33:32.680Z,25.50
2017-10-19T11:36:00.110Z,26.80
2017-10-19T11:38:27.548Z,26.83
2017-10-19T11:40:54.972Z,27.97
2017-10-19T11:43:22.397Z,27.23
2017-10-19T11:45:49.804Z,28.93
2017-10-19T11:48:17.256Z,31.80
2017-10-19T11:50:44.679Z,31.50
2017-10-19T11:53:12.118Z,33.50
2017-10-19T11:55:39.544Z,36.20
2017-10-19T11:58:06.972Z,30.90
2017-10-19T12:00:34.413Z,28.50
2017-10-19T12:03:01.841Z,29.80
2017-10-19T12:05:29.261Z,28.20
2017-10-19T12:07:56.710Z,25.40
2017-10-19T12:10:24.141Z,27.07
2017-10-19T12:12:51.560Z,25.77
2017-10-19T12:15:19.001Z,24.50
2017-10-19T12:17:46.421Z,22.90
2017-10-19T12:20:13.848Z,23.93
2017-10-19T12:22:41.290Z,25.00
2017-10-19T12:25:08.709Z,24.03
2017-10-19T12:27:36.134Z,25.47
2017-10-19T12:30:03.573Z,26.20
2017-10-19T12:32:30.998Z,24.60
2017-10-19T12:34:58.414Z,26.57
2017-10-19T12:37:25.849Z,25.77
2017-10-19T12:39:53.270Z,24.20
2017-10-19T12:42:20.693Z,25.50
2017-10-19T12:44:48.129Z,26.10
2017-10-19T12:47:15.554Z,28.20
2017-10-19T12:49:42.972Z,30.57
2017-10-19T12:52:10.412Z,23.30
2017-10-19T12:54:37.832Z,27.77
2017-10-19T12:57:05.267Z,24.87
2017-10-19T12:59:32.700Z,24.90
2017-10-19T13:02:00.145Z,21.50
2017-10-19T13:04:27.564Z,27.33
2017-10-19T13:06:55.007Z,23.27
2017-10-19T13:09:22.429Z,23.97
2017-10-19T13:11:49.853Z,22.60
2017-10-19T13:14:17.300Z,23.20
2017-10-19T13:16:44.720Z,21.90
2017-10-19T13:19:12.133Z,21.23
2017-10-19T13:21:39.568Z,20.73
2017-10-19T13:24:07.006Z,22.37
2017-10-19T13:26:34.444Z,19.93
2017-10-19T13:29:01.869Z,20.60
2017-10-19T13:31:29.287Z,32.33
2017-10-19T13:33:56.700Z,20.83
2017-10-19T13:36:24.155Z,21.67
2017-10-19T13:38:51.585Z,19.90
2017-10-19T13:41:19.005Z,19.80
2017-10-19T13:43:46.458Z,19.60
2017-10-19T13:46:13.878Z,20.30
2017-10-19T13:48:41.301Z,18.30
2017-10-19T13:51:08.747Z,18.50
2017-10-19T13:53:36.156Z,17.17
2017-10-19T13:56:03.600Z,19.53
2017-10-19T13:58:31.032Z,17.87
2017-10-19T14:00:58.460Z,17.60
2017-10-19T14:03:25.897Z,17.87
2017-10-19T14:05:53.328Z,20.43
2017-10-19T14:08:20.740Z,19.37
2017-10-19T14:10:48.192Z,19.40
2017-10-19T14:13:15.616Z,21.20
2017-10-19T14:15:43.040Z,24.30
2017-10-19T14:18:10.477Z,24.20
2017-10-19T14:20:37.920Z,28.07
2017-10-19T14:23:05.339Z,30.90
2017-10-19T14:25:32.805Z,26.10
2017-10-19T14:28:00.235Z,27.63
2017-10-19T14:30:27.653Z,23.90
2017-10-19T14:32:55.095Z,21.40
2017-10-19T14:35:22.513Z,17.30
2017-10-19T14:37:49.932Z,16.60
2017-10-19T14:40:17.377Z,17.77
2017-10-19T14:42:44.791Z,16.90
2017-10-19T14:45:12.212Z,16.17
2017-10-19T14:47:39.656Z,15.40
2017-10-19T14:50:07.068Z,14.70
2017-10-19T14:52:34.499Z,15.13
2017-10-19T14:55:01.936Z,19.30
2017-10-19T14:57:29.359Z,19.40
2017-10-19T14:59:56.781Z,19.80
2017-10-19T15:02:24.220Z,22.40
2017-10-19T15:04:51.645Z,21.77
2017-10-19T15:07:19.073Z,18.13
2017-10-19T15:09:46.521Z,17.17
2017-10-19T15:12:13.941Z,15.20
2017-10-19T15:14:41.364Z,16.90
2017-10-19T15:17:08.805Z,16.30
2017-10-19T15:19:36.220Z,13.87
2017-10-19T15:22:03.645Z,14.20
2017-10-19T15:24:31.097Z,14.30
2017-10-19T15:26:58.513Z,14.20
2017-10-19T15:29:25.933Z,15.63
2017-10-19T15:31:53.378Z,15.40
2017-10-19T15:34:20.808Z,14.10
2017-10-19T15:36:48.224Z,13.97
2017-10-19T15:39:15.665Z,14.77
2017-10-19T15:41:43.088Z,15.40
2017-10-19T15:44:10.503Z,17.27
2017-10-19T15:46:37.958Z,18.43
2017-10-19T15:49:05.376Z,18.23
2017-10-19T15:51:32.804Z,17.73
2017-10-19T15:54:00.249Z,14.77
2017-10-19T15:56:27.671Z,17.43
2017-10-19T15:58:55.093Z,18.60
2017-10-19T16:01:22.537Z,18.93
2017-10-19T16:03:49.965Z,20.80
2017-10-19T16:06:17.386Z,19.80
2017-10-19T16:08:44.824Z,18.27
2017-10-19T16:11:12.252Z,17.30
2017-10-19T16:13:39.672Z,19.90
2017-10-19T16:16:07.109Z,20.23
2017-10-19T16:18:34.538Z,19.90
2017-10-19T16:21:01.960Z,18.87
2017-10-19T16:23:29.400Z,18.17
2017-10-19T16:25:56.824Z,17.00
2017-10-19T16:28:24.245Z,14.70
2017-10-19T16:30:51.690Z,16.73
2017-10-19T16:33:19.948Z,15.80
2017-10-19T16:35:47.365Z,15.70
2017-10-19T16:38:14.809Z,16.00
2017-10-19T16:40:42.290Z,17.33
2017-10-19T16:43:09.698Z,16.87
2017-10-19T16:45:37.142Z,17.23
2017-10-19T16:48:04.556Z,18.43
2017-10-19T16:50:31.998Z,17.90
2017-10-19T16:52:59.436Z,18.17
2017-10-19T16:55:26.876Z,17.13
2017-10-19T16:57:54.317Z,18.00
2017-10-19T17:00:21.733Z,18.20
2017-10-19T17:02:49.177Z,18.43
2017-10-19T17:05:16.602Z,19.37
2017-10-19T17:07:44.037Z,19.23
2017-10-19T17:10:11.469Z,21.00
2017-10-19T17:12:38.893Z,19.73
2017-10-19T17:15:06.337Z,19.43
2017-10-19T17:17:33.748Z,20.60
2017-10-19T17:20:01.189Z,19.77
2017-10-19T17:22:28.622Z,20.90
2017-10-19T17:24:56.040Z,21.10
2017-10-19T17:27:23.485Z,20.37
2017-10-19T17:29:50.926Z,21.20
2017-10-19T17:32:18.363Z,22.00
2017-10-19T17:34:45.806Z,21.37
2017-10-19T17:37:13.250Z,23.07
2017-10-19T17:39:40.681Z,21.13
2017-10-19T17:42:08.118Z,21.97
2017-10-19T17:44:35.545Z,22.53
2017-10-19T17:47:02.996Z,22.40
2017-10-19T17:49:30.409Z,21.80
2017-10-19T17:51:57.831Z,21.90
2017-10-19T17:54:25.273Z,24.27
2017-10-19T17:56:52.693Z,22.67
2017-10-19T17:59:20.113Z,24.50
2017-10-19T18:01:47.562Z,24.13
2017-10-19T18:04:14.981Z,22.90
2017-10-19T18:06:42.405Z,26.30
2017-10-19T18:09:09.848Z,26.10
2017-10-19T18:11:37.265Z,24.80
2017-10-19T18:14:04.689Z,24.87
2017-10-19T18:16:32.133Z,22.77
2017-10-19T18:18:59.565Z,25.27
2017-10-19T18:21:26.980Z,24.27
2017-10-19T18:23:54.427Z,22.97
2017-10-19T18:26:21.863Z,22.13
2017-10-19T18:28:49.285Z,23.70
2017-10-19T18:31:16.807Z,24.43
2017-10-19T18:33:44.346Z,25.70
2017-10-19T18:36:11.809Z,25.33
2017-10-19T18:38:39.258Z,25.13
2017-10-19T18:41:06.907Z,25.23
2017-10-19T18:43:34.408Z,23.93
2017-10-19T18:46:02.034Z,23.40
2017-10-19T18:48:29.466Z,23.67
2017-10-19T18:50:56.906Z,23.23
2017-10-19T18:53:24.355Z,27.70
2017-10-19T18:55:52.220Z,31.17
2017-10-19T18:58:20.248Z,31.23
2017-10-19T19:00:48.101Z,32.83
2017-10-19T19:03:15.931Z,31.90
2017-10-19T19:05:43.798Z,33.57
2017-10-19T19:08:12.048Z,29.80
2017-10-19T19:10:39.959Z,32.13
2017-10-19T19:13:07.781Z,27.60
2017-10-19T19:15:35.607Z,28.80
2017-10-19T19:18:03.304Z,28.80
2017-10-19T19:20:31.402Z,27.10
2017-10-19T19:22:59.678Z,29.30
2017-10-19T19:25:27.872Z,27.80
2017-10-19T19:27:56.129Z,27.87
2017-10-19T19:30:24.033Z,29.10
2017-10-19T19:32:52.001Z,27.53
2017-10-19T19:35:20.101Z,28.50
2017-10-19T19:37:48.222Z,27.90
2017-10-19T19:40:16.186Z,26.60
2017-10-19T19:42:44.357Z,26.30
2017-10-19T19:45:13.362Z,27.93
2017-10-19T19:47:41.389Z,27.13
2017-10-19T19:50:09.911Z,26.30
2017-10-19T19:52:37.596Z,30.87
2017-10-19T19:55:05.207Z,34.37
2017-10-19T19:57:32.811Z,33.47
2017-10-19T20:00:00.325Z,33.37
2017-10-19T20:02:27.806Z,35.60
2017-10-19T20:04:55.352Z,38.13
2017-10-19T20:07:22.800Z,34.67
2017-10-19T20:09:50.253Z,38.97
2017-10-19T20:12:17.727Z,32.93
2017-10-19T20:14:45.176Z,35.67
2017-10-19T20:17:12.621Z,30.87
2017-10-19T20:19:40.066Z,25.60
2017-10-19T20:22:07.505Z,30.70
2017-10-19T20:24:34.997Z,31.60
2017-10-19T20:27:02.452Z,28.50
2017-10-19T20:29:29.889Z,28.37
2017-10-19T20:31:57.308Z,26.67
2017-10-19T20:34:24.753Z,26.87
2017-10-19T20:36:52.184Z,26.67
2017-10-19T20:39:19.617Z,24.07
2017-10-19T20:41:47.057Z,24.87
2017-10-19T20:44:14.484Z,25.53
2017-10-19T20:46:41.904Z,24.30
2017-10-19T20:49:09.350Z,25.07
2017-10-19T20:51:36.765Z,24.80
2017-10-19T20:54:04.189Z,24.70
2017-10-19T20:56:31.628Z,25.00
2017-10-19T20:58:59.049Z,26.00
2017-10-19T21:01:26.473Z,25.30
2017-10-19T21:03:53.914Z,24.83
2017-10-19T21:06:21.332Z,25.20
2017-10-19T21:08:48.756Z,25.90
2017-10-19T21:11:16.214Z,26.40
2017-10-19T21:13:43.632Z,26.17
2017-10-19T21:16:11.056Z,27.67
2017-10-19T21:18:38.488Z,26.57
2017-10-19T21:21:05.913Z,27.13
2017-10-19T21:23:33.351Z,27.60
2017-10-19T21:26:00.776Z,27.10
2017-10-19T21:28:28.208Z,27.97
2017-10-19T21:30:55.645Z,28.10
2017-10-19T21:33:23.080Z,29.33
2017-10-19T21:35:50.514Z,28.60
2017-10-19T21:38:17.953Z,28.30
2017-10-19T21:40:45.385Z,28.23
2017-10-19T21:43:12.816Z,29.20
2017-10-19T21:45:40.246Z,27.57
2017-10-19T21:48:07.685Z,28.00
2017-10-19T21:50:35.109Z,26.97
2017-10-19T21:53:02.545Z,26.17
2017-10-19T21:55:29.985Z,25.90
2017-10-19T21:57:57.421Z,25.50
2017-10-19T22:00:24.848Z,26.43
2017-10-19T22:02:52.273Z,26.03
2017-10-19T22:05:19.718Z,26.20
2017-10-19T22:07:47.142Z,26.40
2017-10-19T22:10:14.569Z,26.50
2017-10-19T22:12:42.004Z,24.93
2017-10-19T22:15:09.463Z,25.60
2017-10-19T22:17:36.881Z,26.00
2017-10-19T22:20:04.326Z,26.63
2017-10-19T22:22:31.748Z,27.70
2017-10-19T22:24:59.172Z,27.30
2017-10-19T22:27:26.609Z,28.97
2017-10-19T22:29:54.037Z,29.37
2017-10-19T22:32:21.466Z,29.27
2017-10-19T22:34:48.895Z,30.50
2017-10-19T22:37:16.318Z,32.13
2017-10-19T22:39:43.753Z,29.63
2017-10-19T22:42:11.190Z,29.80
2017-10-19T22:44:38.608Z,30.33
2017-10-19T22:47:06.044Z,29.87
2017-10-19T22:49:33.467Z,29.87
2017-10-19T22:52:00.888Z,29.00
2017-10-19T22:54:28.344Z,31.57
2017-10-19T22:56:55.768Z,28.43
2017-10-19T22:59:23.192Z,28.93
2017-10-19T23:01:50.633Z,26.77
2017-10-19T23:04:18.058Z,25.40
2017-10-19T23:06:45.491Z,25.83
2017-10-19T23:09:12.928Z,26.00
2017-10-19T23:11:40.357Z,26.30
2017-10-19T23:14:07.776Z,26.27
2017-10-19T23:16:35.222Z,27.43
2017-10-19T23:19:02.641Z,26.73
2017-10-19T23:21:30.069Z,25.37
2017-10-19T23:23:57.508Z,25.10
2017-10-19T23:26:24.928Z,27.07
2017-10-19T23:28:52.355Z,25.97
2017-10-19T23:31:19.800Z,25.73
2017-10-19T23:33:48.085Z,28.13
2017-10-19T23:36:15.508Z,27.20
2017-10-19T23:38:42.940Z,25.60
2017-10-19T23:41:10.361Z,27.93
2017-10-19T23:43:37.782Z,28.20
2017-10-19T23:46:05.217Z,26.37
2017-10-19T23:48:32.636Z,25.93
2017-10-19T23:51:00.064Z,25.50
2017-10-19T23:53:27.491Z,24.40
2017-10-19T23:55:54.913Z,24.37
2017-10-19T23:58:22.328Z,25.80
